sensor_id;sensor_type;location;lat;lon;timestamp;P1;durP1;ratioP1;P2;durP2;ratioP2
40637;SDS011;26336;44.696;10.622;2023-11-22T00:02:24;23.75;;;17.85;;
40637;SDS011;26336;44.696;10.622;2023-11-22T00:05:32;22.27;;;17.38;;
40637;SDS011;26336;44.696;10.622;2023-11-22T00:08:36;29.02;;;19.42;;
40637;SDS011;26336;44.696;10.622;2023-11-22T00:11:40;25.30;;;18.52;;
40637;SDS011;26336;44.696;10.622;2023-11-22T00:14:44;22.90;;;19.38;;
40637;SDS011;26336;44.696;10.622;2023-11-22T00:17:49;25.75;;;20.02;;
40637;SDS011;26336;44.696;10.622;2023-11-22T00:20:53;23.83;;;19.35;;
40637;SDS011;26336;44.696;10.622;2023-11-22T00:23:58;27.27;;;21.10;;
40637;SDS011;26336;44.696;10.622;2023-11-22T00:27:05;29.58;;;22.42;;
40637;SDS011;26336;44.696;10.622;2023-11-22T00:30:10;30.05;;;22.02;;
40637;SDS011;26336;44.696;10.622;2023-11-22T00:33:14;30.38;;;22.88;;
40637;SDS011;26336;44.696;10.622;2023-11-22T00:36:18;34.50;;;24.42;;
40637;SDS011;26336;44.696;10.622;2023-11-22T00:39:23;32.13;;;23.48;;
40637;SDS011;26336;44.696;10.622;2023-11-22T00:42:27;34.30;;;23.77;;
40637;SDS011;26336;44.696;10.622;2023-11-22T00:45:31;33.38;;;25.27;;
40637;SDS011;26336;44.696;10.622;2023-11-22T00:48:34;32.63;;;24.05;;
40637;SDS011;26336;44.696;10.622;2023-11-22T00:51:38;32.53;;;25.38;;
40637;SDS011;26336;44.696;10.622;2023-11-22T00:54:42;35.22;;;26.33;;
40637;SDS011;26336;44.696;10.622;2023-11-22T00:57:46;34.97;;;27.05;;
40637;SDS011;26336;44.696;10.622;2023-11-22T01:00:50;34.15;;;26.70;;
40637;SDS011;26336;44.696;10.622;2023-11-22T01:03:54;38.35;;;27.08;;
40637;SDS011;26336;44.696;10.622;2023-11-22T01:06:58;35.78;;;27.02;;
40637;SDS011;26336;44.696;10.622;2023-11-22T01:10:03;40.00;;;29.35;;
40637;SDS011;26336;44.696;10.622;2023-11-22T01:13:09;40.78;;;30.38;;
40637;SDS011;26336;44.696;10.622;2023-11-22T01:16:13;42.42;;;30.17;;
40637;SDS011;26336;44.696;10.622;2023-11-22T01:19:18;42.88;;;31.08;;
40637;SDS011;26336;44.696;10.622;2023-11-22T01:22:23;44.83;;;32.97;;
40637;SDS011;26336;44.696;10.622;2023-11-22T01:25:27;47.55;;;33.75;;
40637;SDS011;26336;44.696;10.622;2023-11-22T01:28:32;46.00;;;34.35;;
40637;SDS011;26336;44.696;10.622;2023-11-22T01:31:39;48.45;;;34.00;;
40637;SDS011;26336;44.696;10.622;2023-11-22T01:34:45;51.47;;;35.53;;
40637;SDS011;26336;44.696;10.622;2023-11-22T01:37:49;44.05;;;34.30;;
40637;SDS011;26336;44.696;10.622;2023-11-22T01:40:53;48.05;;;34.08;;
40637;SDS011;26336;44.696;10.622;2023-11-22T01:44:00;54.13;;;37.25;;
40637;SDS011;26336;44.696;10.622;2023-11-22T01:47:06;51.33;;;36.28;;
40637;SDS011;26336;44.696;10.622;2023-11-22T01:50:12;51.13;;;35.25;;
40637;SDS011;26336;44.696;10.622;2023-11-22T01:53:18;49.60;;;35.45;;
40637;SDS011;26336;44.696;10.622;2023-11-22T01:56:22;48.30;;;36.85;;
40637;SDS011;26336;44.696;10.622;2023-11-22T01:59:28;53.28;;;36.60;;
40637;SDS011;26336;44.696;10.622;2023-11-22T02:02:34;48.22;;;35.45;;
40637;SDS011;26336;44.696;10.622;2023-11-22T02:05:39;48.17;;;36.58;;
40637;SDS011;26336;44.696;10.622;2023-11-22T02:08:45;51.45;;;36.55;;
40637;SDS011;26336;44.696;10.622;2023-11-22T02:11:50;49.83;;;35.15;;
40637;SDS011;26336;44.696;10.622;2023-11-22T02:14:54;50.38;;;37.05;;
40637;SDS011;26336;44.696;10.622;2023-11-22T02:17:58;50.97;;;35.65;;
40637;SDS011;26336;44.696;10.622;2023-11-22T02:21:02;51.03;;;35.50;;
40637;SDS011;26336;44.696;10.622;2023-11-22T02:24:06;51.65;;;36.83;;
40637;SDS011;26336;44.696;10.622;2023-11-22T02:27:10;53.17;;;34.97;;
40637;SDS011;26336;44.696;10.622;2023-11-22T02:30:14;46.17;;;35.38;;
40637;SDS011;26336;44.696;10.622;2023-11-22T02:33:19;49.72;;;35.42;;
40637;SDS011;26336;44.696;10.622;2023-11-22T02:36:23;49.97;;;36.40;;
40637;SDS011;26336;44.696;10.622;2023-11-22T02:39:29;49.78;;;35.92;;
40637;SDS011;26336;44.696;10.622;2023-11-22T02:43:00;46.88;;;34.15;;
40637;SDS011;26336;44.696;10.622;2023-11-22T02:46:08;51.13;;;34.13;;
40637;SDS011;26336;44.696;10.622;2023-11-22T02:49:12;47.45;;;35.28;;
40637;SDS011;26336;44.696;10.622;2023-11-22T02:52:16;48.95;;;36.15;;
40637;SDS011;26336;44.696;10.622;2023-11-22T02:55:20;45.40;;;33.72;;
40637;SDS011;26336;44.696;10.622;2023-11-22T02:58:24;49.95;;;34.67;;
40637;SDS011;26336;44.696;10.622;2023-11-22T03:01:29;46.90;;;34.35;;
40637;SDS011;26336;44.696;10.622;2023-11-22T03:04:33;45.78;;;33.05;;
40637;SDS011;26336;44.696;10.622;2023-11-22T03:07:37;46.05;;;34.10;;
40637;SDS011;26336;44.696;10.622;2023-11-22T03:10:42;44.15;;;33.92;;
40637;SDS011;26336;44.696;10.622;2023-11-22T03:13:45;47.42;;;34.17;;
40637;SDS011;26336;44.696;10.622;2023-11-22T03:16:49;45.90;;;34.05;;
40637;SDS011;26336;44.696;10.622;2023-11-22T03:19:55;43.42;;;32.50;;
40637;SDS011;26336;44.696;10.622;2023-11-22T03:23:06;44.17;;;33.58;;
40637;SDS011;26336;44.696;10.622;2023-11-22T03:26:14;51.50;;;34.25;;
40637;SDS011;26336;44.696;10.622;2023-11-22T03:29:17;47.88;;;33.92;;
40637;SDS011;26336;44.696;10.622;2023-11-22T03:32:22;42.30;;;32.85;;
40637;SDS011;26336;44.696;10.622;2023-11-22T03:35:26;42.63;;;31.55;;
40637;SDS011;26336;44.696;10.622;2023-11-22T03:38:30;45.60;;;32.47;;
40637;SDS011;26336;44.696;10.622;2023-11-22T03:41:34;46.17;;;32.33;;
40637;SDS011;26336;44.696;10.622;2023-11-22T03:44:37;42.95;;;32.33;;
40637;SDS011;26336;44.696;10.622;2023-11-22T03:47:41;40.88;;;31.17;;
40637;SDS011;26336;44.696;10.622;2023-11-22T03:50:46;47.33;;;33.97;;
40637;SDS011;26336;44.696;10.622;2023-11-22T03:53:50;45.17;;;33.67;;
40637;SDS011;26336;44.696;10.622;2023-11-22T03:56:54;44.47;;;33.25;;
40637;SDS011;26336;44.696;10.622;2023-11-22T03:59:58;44.45;;;32.60;;
40637;SDS011;26336;44.696;10.622;2023-11-22T04:03:02;47.80;;;34.50;;
40637;SDS011;26336;44.696;10.622;2023-11-22T04:06:06;45.33;;;32.47;;
40637;SDS011;26336;44.696;10.622;2023-11-22T04:09:10;44.60;;;32.17;;
40637;SDS011;26336;44.696;10.622;2023-11-22T04:12:16;46.05;;;32.72;;
40637;SDS011;26336;44.696;10.622;2023-11-22T04:15:20;42.80;;;31.40;;
40637;SDS011;26336;44.696;10.622;2023-11-22T04:18:24;44.75;;;32.08;;
40637;SDS011;26336;44.696;10.622;2023-11-22T04:21:29;42.30;;;31.27;;
40637;SDS011;26336;44.696;10.622;2023-11-22T04:24:33;46.43;;;32.77;;
40637;SDS011;26336;44.696;10.622;2023-11-22T04:27:37;45.58;;;32.83;;
40637;SDS011;26336;44.696;10.622;2023-11-22T04:30:41;43.47;;;32.27;;
40637;SDS011;26336;44.696;10.622;2023-11-22T04:33:45;43.57;;;32.60;;
40637;SDS011;26336;44.696;10.622;2023-11-22T04:36:49;45.17;;;32.13;;
40637;SDS011;26336;44.696;10.622;2023-11-22T04:39:53;49.70;;;33.60;;
40637;SDS011;26336;44.696;10.622;2023-11-22T04:42:57;45.40;;;31.50;;
40637;SDS011;26336;44.696;10.622;2023-11-22T04:46:01;42.53;;;31.47;;
40637;SDS011;26336;44.696;10.622;2023-11-22T04:49:07;41.27;;;30.60;;
40637;SDS011;26336;44.696;10.622;2023-11-22T04:52:11;42.00;;;31.70;;
40637;SDS011;26336;44.696;10.622;2023-11-22T04:55:18;40.83;;;29.63;;
40637;SDS011;26336;44.696;10.622;2023-11-22T04:58:22;40.20;;;30.67;;
40637;SDS011;26336;44.696;10.622;2023-11-22T05:01:31;41.67;;;30.93;;
40637;SDS011;26336;44.696;10.622;2023-11-22T05:04:37;39.77;;;30.20;;
40637;SDS011;26336;44.696;10.622;2023-11-22T05:07:41;41.17;;;30.77;;
40637;SDS011;26336;44.696;10.622;2023-11-22T05:10:47;43.47;;;30.07;;
40637;SDS011;26336;44.696;10.622;2023-11-22T05:13:51;42.97;;;29.73;;
40637;SDS011;26336;44.696;10.622;2023-11-22T05:16:55;39.10;;;30.17;;
40637;SDS011;26336;44.696;10.622;2023-11-22T05:20:00;41.23;;;29.43;;
40637;SDS011;26336;44.696;10.622;2023-11-22T05:23:04;43.70;;;30.27;;
40637;SDS011;26336;44.696;10.622;2023-11-22T05:26:08;36.40;;;28.03;;
40637;SDS011;26336;44.696;10.622;2023-11-22T05:29:11;39.87;;;29.27;;
40637;SDS011;26336;44.696;10.622;2023-11-22T05:32:16;41.65;;;29.85;;
40637;SDS011;26336;44.696;10.622;2023-11-22T05:35:20;37.60;;;29.20;;
40637;SDS011;26336;44.696;10.622;2023-11-22T05:38:24;39.07;;;29.53;;
40637;SDS011;26336;44.696;10.622;2023-11-22T05:41:30;38.37;;;29.47;;
40637;SDS011;26336;44.696;10.622;2023-11-22T05:44:34;41.37;;;29.23;;
40637;SDS011;26336;44.696;10.622;2023-11-22T05:47:38;40.40;;;30.48;;
40637;SDS011;26336;44.696;10.622;2023-11-22T05:50:42;37.88;;;29.17;;
40637;SDS011;26336;44.696;10.622;2023-11-22T05:53:47;43.07;;;28.90;;
40637;SDS011;26336;44.696;10.622;2023-11-22T05:56:51;37.60;;;28.70;;
40637;SDS011;26336;44.696;10.622;2023-11-22T05:59:54;38.57;;;29.20;;
40637;SDS011;26336;44.696;10.622;2023-11-22T06:02:58;37.33;;;28.10;;
40637;SDS011;26336;44.696;10.622;2023-11-22T06:06:02;41.47;;;29.90;;
40637;SDS011;26336;44.696;10.622;2023-11-22T06:09:06;38.43;;;28.90;;
40637;SDS011;26336;44.696;10.622;2023-11-22T06:12:10;38.93;;;28.13;;
40637;SDS011;26336;44.696;10.622;2023-11-22T06:15:15;40.43;;;30.43;;
40637;SDS011;26336;44.696;10.622;2023-11-22T06:18:20;43.27;;;29.90;;
40637;SDS011;26336;44.696;10.622;2023-11-22T06:21:24;39.13;;;29.30;;
40637;SDS011;26336;44.696;10.622;2023-11-22T06:24:30;40.90;;;29.73;;
40637;SDS011;26336;44.696;10.622;2023-11-22T06:27:34;37.43;;;28.27;;
40637;SDS011;26336;44.696;10.622;2023-11-22T06:30:38;37.77;;;27.83;;
40637;SDS011;26336;44.696;10.622;2023-11-22T06:33:42;36.90;;;28.13;;
40637;SDS011;26336;44.696;10.622;2023-11-22T06:36:46;39.80;;;30.37;;
40637;SDS011;26336;44.696;10.622;2023-11-22T06:39:50;38.75;;;28.63;;
40637;SDS011;26336;44.696;10.622;2023-11-22T06:42:56;40.97;;;30.00;;
40637;SDS011;26336;44.696;10.622;2023-11-22T06:46:00;42.57;;;29.33;;
40637;SDS011;26336;44.696;10.622;2023-11-22T06:49:05;38.50;;;27.83;;
40637;SDS011;26336;44.696;10.622;2023-11-22T06:52:09;41.70;;;29.57;;
40637;SDS011;26336;44.696;10.622;2023-11-22T06:55:13;43.17;;;29.20;;
40637;SDS011;26336;44.696;10.622;2023-11-22T06:58:17;41.90;;;30.20;;
40637;SDS011;26336;44.696;10.622;2023-11-22T07:01:24;37.27;;;27.87;;
40637;SDS011;26336;44.696;10.622;2023-11-22T07:04:30;38.93;;;29.03;;
40637;SDS011;26336;44.696;10.622;2023-11-22T07:07:35;36.87;;;27.97;;
40637;SDS011;26336;44.696;10.622;2023-11-22T07:10:39;37.73;;;28.50;;
40637;SDS011;26336;44.696;10.622;2023-11-22T07:13:44;38.60;;;29.07;;
40637;SDS011;26336;44.696;10.622;2023-11-22T07:16:48;38.70;;;28.73;;
40637;SDS011;26336;44.696;10.622;2023-11-22T07:19:52;42.60;;;29.90;;
40637;SDS011;26336;44.696;10.622;2023-11-22T07:22:56;41.87;;;31.63;;
40637;SDS011;26336;44.696;10.622;2023-11-22T07:26:00;40.47;;;30.13;;
40637;SDS011;26336;44.696;10.622;2023-11-22T07:29:04;40.17;;;29.73;;
40637;SDS011;26336;44.696;10.622;2023-11-22T07:32:09;47.13;;;30.80;;
40637;SDS011;26336;44.696;10.622;2023-11-22T07:35:13;49.20;;;32.23;;
40637;SDS011;26336;44.696;10.622;2023-11-22T07:38:18;40.85;;;29.58;;
40637;SDS011;26336;44.696;10.622;2023-11-22T07:41:22;43.57;;;29.90;;
40637;SDS011;26336;44.696;10.622;2023-11-22T07:44:30;41.47;;;30.00;;
40637;SDS011;26336;44.696;10.622;2023-11-22T07:47:35;42.22;;;29.75;;
40637;SDS011;26336;44.696;10.622;2023-11-22T07:50:40;41.30;;;28.58;;
40637;SDS011;26336;44.696;10.622;2023-11-22T07:53:47;37.90;;;29.13;;
40637;SDS011;26336;44.696;10.622;2023-11-22T07:56:52;39.53;;;29.58;;
40637;SDS011;26336;44.696;10.622;2023-11-22T07:59:56;35.28;;;28.70;;
40637;SDS011;26336;44.696;10.622;2023-11-22T08:03:00;39.28;;;28.77;;
40637;SDS011;26336;44.696;10.622;2023-11-22T08:06:09;39.30;;;28.83;;
40637;SDS011;26336;44.696;10.622;2023-11-22T08:09:14;38.63;;;28.52;;
40637;SDS011;26336;44.696;10.622;2023-11-22T08:12:19;36.42;;;28.77;;
40637;SDS011;26336;44.696;10.622;2023-11-22T08:15:24;39.03;;;28.63;;
40637;SDS011;26336;44.696;10.622;2023-11-22T08:18:28;42.28;;;30.90;;
40637;SDS011;26336;44.696;10.622;2023-11-22T08:21:32;37.60;;;28.45;;
40637;SDS011;26336;44.696;10.622;2023-11-22T08:24:36;38.95;;;28.58;;
40637;SDS011;26336;44.696;10.622;2023-11-22T08:27:40;37.10;;;27.48;;
40637;SDS011;26336;44.696;10.622;2023-11-22T08:30:44;37.85;;;28.10;;
40637;SDS011;26336;44.696;10.622;2023-11-22T08:33:48;38.05;;;28.35;;
40637;SDS011;26336;44.696;10.622;2023-11-22T08:36:52;38.80;;;28.15;;
40637;SDS011;26336;44.696;10.622;2023-11-22T08:39:57;40.92;;;28.40;;
40637;SDS011;26336;44.696;10.622;2023-11-22T08:43:01;36.13;;;28.23;;
40637;SDS011;26336;44.696;10.622;2023-11-22T08:46:06;38.45;;;29.70;;
40637;SDS011;26336;44.696;10.622;2023-11-22T08:49:11;40.83;;;28.55;;
40637;SDS011;26336;44.696;10.622;2023-11-22T08:52:15;36.10;;;28.50;;
40637;SDS011;26336;44.696;10.622;2023-11-22T08:55:19;36.13;;;27.85;;
40637;SDS011;26336;44.696;10.622;2023-11-22T08:58:25;38.80;;;29.33;;
40637;SDS011;26336;44.696;10.622;2023-11-22T09:01:29;41.72;;;30.23;;
40637;SDS011;26336;44.696;10.622;2023-11-22T09:04:33;37.65;;;28.75;;
40637;SDS011;26336;44.696;10.622;2023-11-22T09:07:37;38.22;;;28.83;;
40637;SDS011;26336;44.696;10.622;2023-11-22T09:10:42;33.17;;;26.40;;
40637;SDS011;26336;44.696;10.622;2023-11-22T09:13:48;37.92;;;27.27;;
40637;SDS011;26336;44.696;10.622;2023-11-22T09:16:53;35.10;;;27.17;;
40637;SDS011;26336;44.696;10.622;2023-11-22T09:19:58;37.70;;;26.65;;
40637;SDS011;26336;44.696;10.622;2023-11-22T09:23:02;33.45;;;26.05;;
40637;SDS011;26336;44.696;10.622;2023-11-22T09:26:08;36.17;;;26.83;;
40637;SDS011;26336;44.696;10.622;2023-11-22T09:29:12;34.97;;;27.30;;
40637;SDS011;26336;44.696;10.622;2023-11-22T09:32:17;36.78;;;26.88;;
40637;SDS011;26336;44.696;10.622;2023-11-22T09:35:21;33.53;;;26.05;;
40637;SDS011;26336;44.696;10.622;2023-11-22T09:38:26;33.47;;;27.60;;
40637;SDS011;26336;44.696;10.622;2023-11-22T09:41:35;34.35;;;26.63;;
40637;SDS011;26336;44.696;10.622;2023-11-22T09:44:40;32.13;;;27.05;;
40637;SDS011;26336;44.696;10.622;2023-11-22T09:47:44;33.92;;;26.42;;
40637;SDS011;26336;44.696;10.622;2023-11-22T09:53:57;35.45;;;26.20;;
40637;SDS011;26336;44.696;10.622;2023-11-22T09:57:10;34.75;;;26.48;;
40637;SDS011;26336;44.696;10.622;2023-11-22T10:00:15;30.48;;;24.48;;
40637;SDS011;26336;44.696;10.622;2023-11-22T10:03:21;31.02;;;23.52;;
40637;SDS011;26336;44.696;10.622;2023-11-22T10:06:27;30.38;;;22.27;;
40637;SDS011;26336;44.696;10.622;2023-11-22T10:09:36;26.02;;;20.20;;
40637;SDS011;26336;44.696;10.622;2023-11-22T10:12:44;22.85;;;18.25;;
40637;SDS011;26336;44.696;10.622;2023-11-22T10:15:48;27.65;;;19.70;;
40637;SDS011;26336;44.696;10.622;2023-11-22T10:18:53;23.67;;;17.95;;
40637;SDS011;26336;44.696;10.622;2023-11-22T10:22:03;25.55;;;18.60;;
40637;SDS011;26336;44.696;10.622;2023-11-22T10:25:09;23.67;;;17.40;;
40637;SDS011;26336;44.696;10.622;2023-11-22T10:28:14;22.55;;;18.00;;
40637;SDS011;26336;44.696;10.622;2023-11-22T10:31:18;23.80;;;16.33;;
40637;SDS011;26336;44.696;10.622;2023-11-22T10:34:24;23.55;;;18.30;;
40637;SDS011;26336;44.696;10.622;2023-11-22T10:37:28;24.20;;;17.58;;
40637;SDS011;26336;44.696;10.622;2023-11-22T10:40:32;19.48;;;15.65;;
40637;SDS011;26336;44.696;10.622;2023-11-22T10:43:37;21.75;;;16.60;;
40637;SDS011;26336;44.696;10.622;2023-11-22T10:46:42;20.85;;;16.52;;
40637;SDS011;26336;44.696;10.622;2023-11-22T10:49:46;22.30;;;17.50;;
40637;SDS011;26336;44.696;10.622;2023-11-22T10:52:51;23.25;;;18.30;;
40637;SDS011;26336;44.696;10.622;2023-11-22T10:56:11;21.02;;;16.85;;
40637;SDS011;26336;44.696;10.622;2023-11-22T10:59:22;22.05;;;17.70;;
40637;SDS011;26336;44.696;10.622;2023-11-22T11:02:32;19.90;;;15.02;;
40637;SDS011;26336;44.696;10.622;2023-11-22T11:05:57;17.88;;;14.95;;
40637;SDS011;26336;44.696;10.622;2023-11-22T11:09:03;20.02;;;15.57;;
40637;SDS011;26336;44.696;10.622;2023-11-22T11:12:14;24.33;;;17.08;;
40637;SDS011;26336;44.696;10.622;2023-11-22T11:15:18;24.27;;;18.02;;
40637;SDS011;26336;44.696;10.622;2023-11-22T11:18:23;24.73;;;18.05;;
40637;SDS011;26336;44.696;10.622;2023-11-22T11:21:28;22.95;;;17.33;;
40637;SDS011;26336;44.696;10.622;2023-11-22T11:24:37;21.48;;;11.57;;
40637;SDS011;26336;44.696;10.622;2023-11-22T11:27:47;16.52;;;9.52;;
40637;SDS011;26336;44.696;10.622;2023-11-22T11:31:00;14.55;;;9.27;;
40637;SDS011;26336;44.696;10.622;2023-11-22T11:34:07;14.20;;;10.05;;
40637;SDS011;26336;44.696;10.622;2023-11-22T11:37:11;14.05;;;10.00;;
40637;SDS011;26336;44.696;10.622;2023-11-22T11:40:26;16.10;;;10.32;;
40637;SDS011;26336;44.696;10.622;2023-11-22T11:43:41;17.77;;;11.45;;
40637;SDS011;26336;44.696;10.622;2023-11-22T11:46:51;17.10;;;11.80;;
40637;SDS011;26336;44.696;10.622;2023-11-22T11:49:55;17.02;;;12.98;;
40637;SDS011;26336;44.696;10.622;2023-11-22T11:52:59;17.45;;;11.45;;
40637;SDS011;26336;44.696;10.622;2023-11-22T11:56:03;14.48;;;10.95;;
40637;SDS011;26336;44.696;10.622;2023-11-22T11:59:07;13.85;;;9.70;;
40637;SDS011;26336;44.696;10.622;2023-11-22T12:02:13;11.73;;;9.30;;
40637;SDS011;26336;44.696;10.622;2023-11-22T12:05:20;12.05;;;8.73;;
40637;SDS011;26336;44.696;10.622;2023-11-22T12:08:23;17.60;;;9.93;;
40637;SDS011;26336;44.696;10.622;2023-11-22T12:11:28;13.52;;;8.95;;
40637;SDS011;26336;44.696;10.622;2023-11-22T12:14:33;13.18;;;9.25;;
40637;SDS011;26336;44.696;10.622;2023-11-22T12:17:37;13.80;;;10.05;;
40637;SDS011;26336;44.696;10.622;2023-11-22T12:20:41;15.77;;;9.73;;
40637;SDS011;26336;44.696;10.622;2023-11-22T12:23:46;14.63;;;9.52;;
40637;SDS011;26336;44.696;10.622;2023-11-22T12:26:53;12.93;;;9.40;;
40637;SDS011;26336;44.696;10.622;2023-11-22T12:29:59;12.18;;;8.77;;
40637;SDS011;26336;44.696;10.622;2023-11-22T12:33:06;13.18;;;9.02;;
40637;SDS011;26336;44.696;10.622;2023-11-22T12:36:11;14.70;;;9.50;;
40637;SDS011;26336;44.696;10.622;2023-11-22T12:39:20;14.38;;;10.00;;
40637;SDS011;26336;44.696;10.622;2023-11-22T12:42:24;15.57;;;10.93;;
40637;SDS011;26336;44.696;10.622;2023-11-22T12:45:31;13.88;;;10.80;;
40637;SDS011;26336;44.696;10.622;2023-11-22T12:48:40;14.40;;;10.90;;
40637;SDS011;26336;44.696;10.622;2023-11-22T12:51:46;11.88;;;9.20;;
40637;SDS011;26336;44.696;10.622;2023-11-22T12:54:51;14.30;;;10.40;;
40637;SDS011;26336;44.696;10.622;2023-11-22T12:57:58;13.48;;;9.93;;
40637;SDS011;26336;44.696;10.622;2023-11-22T13:01:06;15.93;;;10.73;;
40637;SDS011;26336;44.696;10.622;2023-11-22T13:04:10;12.73;;;9.52;;
40637;SDS011;26336;44.696;10.622;2023-11-22T13:07:18;17.65;;;9.93;;
40637;SDS011;26336;44.696;10.622;2023-11-22T13:10:23;14.20;;;9.02;;
40637;SDS011;26336;44.696;10.622;2023-11-22T13:13:29;13.20;;;10.20;;
40637;SDS011;26336;44.696;10.622;2023-11-22T13:16:34;13.75;;;9.98;;
40637;SDS011;26336;44.696;10.622;2023-11-22T13:19:40;10.73;;;9.38;;
40637;SDS011;26336;44.696;10.622;2023-11-22T13:22:44;14.68;;;10.30;;
40637;SDS011;26336;44.696;10.622;2023-11-22T13:25:50;13.05;;;9.85;;
40637;SDS011;26336;44.696;10.622;2023-11-22T13:28:54;12.20;;;10.02;;
40637;SDS011;26336;44.696;10.622;2023-11-22T13:31:59;13.15;;;10.15;;
40637;SDS011;26336;44.696;10.622;2023-11-22T13:35:03;14.27;;;10.57;;
40637;SDS011;26336;44.696;10.622;2023-11-22T13:38:14;15.80;;;11.02;;
40637;SDS011;26336;44.696;10.622;2023-11-22T13:41:19;12.77;;;9.13;;
40637;SDS011;26336;44.696;10.622;2023-11-22T13:44:23;10.85;;;9.00;;
40637;SDS011;26336;44.696;10.622;2023-11-22T13:47:27;13.23;;;9.45;;
40637;SDS011;26336;44.696;10.622;2023-11-22T13:50:33;18.15;;;10.48;;
40637;SDS011;26336;44.696;10.622;2023-11-22T13:53:37;13.73;;;10.18;;
40637;SDS011;26336;44.696;10.622;2023-11-22T13:56:46;13.93;;;9.13;;
40637;SDS011;26336;44.696;10.622;2023-11-22T13:59:50;12.63;;;8.73;;
40637;SDS011;26336;44.696;10.622;2023-11-22T14:02:57;14.15;;;7.65;;
40637;SDS011;26336;44.696;10.622;2023-11-22T14:06:07;10.23;;;5.60;;
40637;SDS011;26336;44.696;10.622;2023-11-22T14:09:13;11.82;;;4.40;;
40637;SDS011;26336;44.696;10.622;2023-11-22T14:12:18;8.85;;;3.70;;
40637;SDS011;26336;44.696;10.622;2023-11-22T14:15:22;7.72;;;3.70;;
40637;SDS011;26336;44.696;10.622;2023-11-22T14:18:26;9.18;;;2.60;;
40637;SDS011;26336;44.696;10.622;2023-11-22T14:21:30;5.53;;;1.77;;
40637;SDS011;26336;44.696;10.622;2023-11-22T14:24:35;8.00;;;2.58;;
40637;SDS011;26336;44.696;10.622;2023-11-22T14:27:43;3.88;;;1.85;;
40637;SDS011;26336;44.696;10.622;2023-11-22T14:30:57;6.35;;;1.80;;
40637;SDS011;26336;44.696;10.622;2023-11-22T14:34:01;7.25;;;1.70;;
40637;SDS011;26336;44.696;10.622;2023-11-22T14:37:09;3.80;;;1.63;;
40637;SDS011;26336;44.696;10.622;2023-11-22T14:40:14;6.65;;;2.05;;
40637;SDS011;26336;44.696;10.622;2023-11-22T14:43:19;4.47;;;2.35;;
40637;SDS011;26336;44.696;10.622;2023-11-22T14:49:45;6.25;;;1.80;;
40637;SDS011;26336;44.696;10.622;2023-11-22T14:52:52;6.22;;;2.13;;
40637;SDS011;26336;44.696;10.622;2023-11-22T14:55:56;5.32;;;2.45;;
40637;SDS011;26336;44.696;10.622;2023-11-22T14:59:00;6.35;;;2.05;;
40637;SDS011;26336;44.696;10.622;2023-11-22T15:02:05;7.78;;;2.10;;
40637;SDS011;26336;44.696;10.622;2023-11-22T15:05:13;8.60;;;2.05;;
40637;SDS011;26336;44.696;10.622;2023-11-22T15:08:17;8.38;;;2.45;;
40637;SDS011;26336;44.696;10.622;2023-11-22T15:11:23;7.38;;;2.47;;
40637;SDS011;26336;44.696;10.622;2023-11-22T15:14:27;7.35;;;2.67;;
40637;SDS011;26336;44.696;10.622;2023-11-22T15:17:30;5.20;;;2.08;;
40637;SDS011;26336;44.696;10.622;2023-11-22T15:20:35;4.07;;;1.80;;
40637;SDS011;26336;44.696;10.622;2023-11-22T15:24:00;6.95;;;2.42;;
40637;SDS011;26336;44.696;10.622;2023-11-22T15:27:04;7.35;;;2.47;;
40637;SDS011;26336;44.696;10.622;2023-11-22T15:30:08;8.68;;;2.90;;
40637;SDS011;26336;44.696;10.622;2023-11-22T15:33:16;4.30;;;2.33;;
40637;SDS011;26336;44.696;10.622;2023-11-22T15:36:20;6.07;;;2.20;;
40637;SDS011;26336;44.696;10.622;2023-11-22T15:39:23;6.18;;;2.50;;
40637;SDS011;26336;44.696;10.622;2023-11-22T15:42:28;5.30;;;2.35;;
40637;SDS011;26336;44.696;10.622;2023-11-22T15:45:33;6.75;;;2.70;;
40637;SDS011;26336;44.696;10.622;2023-11-22T15:48:37;5.57;;;2.30;;
40637;SDS011;26336;44.696;10.622;2023-11-22T15:51:41;9.18;;;3.08;;
40637;SDS011;26336;44.696;10.622;2023-11-22T15:54:45;5.85;;;2.70;;
40637;SDS011;26336;44.696;10.622;2023-11-22T15:57:50;6.45;;;2.83;;
40637;SDS011;26336;44.696;10.622;2023-11-22T16:00:55;7.35;;;2.88;;
40637;SDS011;26336;44.696;10.622;2023-11-22T16:04:01;4.38;;;2.42;;
40637;SDS011;26336;44.696;10.622;2023-11-22T16:07:05;10.07;;;3.10;;
40637;SDS011;26336;44.696;10.622;2023-11-22T16:10:09;6.43;;;2.38;;
40637;SDS011;26336;44.696;10.622;2023-11-22T16:13:14;5.63;;;2.80;;
40637;SDS011;26336;44.696;10.622;2023-11-22T16:16:18;7.40;;;2.92;;
40637;SDS011;26336;44.696;10.622;2023-11-22T16:19:24;8.43;;;2.78;;
40637;SDS011;26336;44.696;10.622;2023-11-22T16:22:49;6.53;;;3.17;;
40637;SDS011;26336;44.696;10.622;2023-11-22T16:25:53;6.65;;;2.90;;
40637;SDS011;26336;44.696;10.622;2023-11-22T16:28:58;7.13;;;2.80;;
40637;SDS011;26336;44.696;10.622;2023-11-22T16:32:02;8.70;;;3.03;;
40637;SDS011;26336;44.696;10.622;2023-11-22T16:35:06;7.32;;;5.18;;
40637;SDS011;26336;44.696;10.622;2023-11-22T16:38:10;14.02;;;5.47;;
40637;SDS011;26336;44.696;10.622;2023-11-22T16:41:14;8.75;;;4.90;;
40637;SDS011;26336;44.696;10.622;2023-11-22T16:44:18;9.40;;;4.88;;
40637;SDS011;26336;44.696;10.622;2023-11-22T16:47:22;10.88;;;4.82;;
40637;SDS011;26336;44.696;10.622;2023-11-22T16:50:27;13.77;;;5.03;;
40637;SDS011;26336;44.696;10.622;2023-11-22T16:53:31;9.27;;;5.72;;
40637;SDS011;26336;44.696;10.622;2023-11-22T16:56:35;11.48;;;4.70;;
40637;SDS011;26336;44.696;10.622;2023-11-22T16:59:39;6.07;;;4.00;;
40637;SDS011;26336;44.696;10.622;2023-11-22T17:02:44;8.35;;;4.60;;
40637;SDS011;26336;44.696;10.622;2023-11-22T17:05:51;11.98;;;5.72;;
40637;SDS011;26336;44.696;10.622;2023-11-22T17:08:55;8.82;;;6.90;;
40637;SDS011;26336;44.696;10.622;2023-11-22T17:11:59;14.68;;;7.88;;
40637;SDS011;26336;44.696;10.622;2023-11-22T17:15:03;10.35;;;5.63;;
40637;SDS011;26336;44.696;10.622;2023-11-22T17:18:08;10.43;;;6.32;;
40637;SDS011;26336;44.696;10.622;2023-11-22T17:21:12;10.40;;;5.72;;
40637;SDS011;26336;44.696;10.622;2023-11-22T17:24:22;15.15;;;7.20;;
40637;SDS011;26336;44.696;10.622;2023-11-22T17:27:26;11.00;;;6.80;;
40637;SDS011;26336;44.696;10.622;2023-11-22T17:30:30;18.48;;;9.23;;
40637;SDS011;26336;44.696;10.622;2023-11-22T17:33:37;17.90;;;11.80;;
40637;SDS011;26336;44.696;10.622;2023-11-22T17:36:41;19.55;;;12.10;;
40637;SDS011;26336;44.696;10.622;2023-11-22T17:39:45;23.17;;;12.85;;
40637;SDS011;26336;44.696;10.622;2023-11-22T17:42:49;21.58;;;12.93;;
40637;SDS011;26336;44.696;10.622;2023-11-22T17:45:53;19.02;;;10.85;;
40637;SDS011;26336;44.696;10.622;2023-11-22T17:48:59;18.20;;;11.52;;
40637;SDS011;26336;44.696;10.622;2023-11-22T17:52:03;16.15;;;11.63;;
40637;SDS011;26336;44.696;10.622;2023-11-22T17:55:07;18.50;;;10.13;;
40637;SDS011;26336;44.696;10.622;2023-11-22T17:58:12;15.27;;;10.82;;
40637;SDS011;26336;44.696;10.622;2023-11-22T18:01:16;20.98;;;11.35;;